createdAt,value
2016-08-22T00:00:14.063Z,0
2016-08-22T00:00:38.196Z,0
2016-08-22T00:01:02.315Z,0
2016-08-22T00:01:26.431Z,0
2016-08-22T00:01:50.541Z,0
2016-08-22T00:02:14.666Z,0
2016-08-22T00:02:38.916Z,0
2016-08-22T00:03:03.033Z,0
2016-08-22T00:03:27.160Z,0
2016-08-22T00:03:51.293Z,0
2016-08-22T00:04:15.477Z,0
2016-08-22T00:04:39.587Z,0
2016-08-22T00:05:03.710Z,0
2016-08-22T00:05:27.854Z,0
2016-08-22T00:05:51.985Z,0
2016-08-22T00:06:16.108Z,0
2016-08-22T00:06:40.230Z,0
2016-08-22T00:07:04.364Z,0
2016-08-22T00:07:28.484Z,0
2016-08-22T00:07:52.614Z,0
2016-08-22T00:08:16.730Z,0
2016-08-22T00:08:40.873Z,0
2016-08-22T00:09:04.976Z,0
2016-08-22T00:09:29.105Z,0
2016-08-22T00:09:53.247Z,0
2016-08-22T00:10:17.381Z,0
2016-08-22T00:10:41.510Z,0
2016-08-22T00:11:05.635Z,0
2016-08-22T00:11:29.769Z,0
2016-08-22T00:11:53.890Z,0
2016-08-22T00:12:18.001Z,0
2016-08-22T00:12:42.119Z,0
2016-08-22T00:13:06.254Z,0
2016-08-22T00:13:30.385Z,0
2016-08-22T00:13:54.500Z,0
2016-08-22T00:14:18.622Z,0
2016-08-22T00:14:42.765Z,0
2016-08-22T00:15:06.873Z,0
2016-08-22T00:15:31.000Z,0
2016-08-22T00:15:55.122Z,0
2016-08-22T00:16:19.265Z,0
2016-08-22T00:16:43.379Z,0
2016-08-22T00:17:07.496Z,0
2016-08-22T00:17:31.606Z,0
2016-08-22T00:17:55.725Z,0
2016-08-22T00:18:19.862Z,0
2016-08-22T00:18:43.980Z,0
2016-08-22T00:19:08.117Z,0
2016-08-22T00:19:32.241Z,0
2016-08-22T00:19:56.354Z,0
2016-08-22T00:20:20.482Z,0
2016-08-22T00:20:44.635Z,0
2016-08-22T00:21:08.764Z,0
2016-08-22T00:21:32.881Z,0
2016-08-22T00:21:57.000Z,0
2016-08-22T00:22:21.126Z,0
2016-08-22T00:22:45.258Z,0
2016-08-22T00:23:09.369Z,0
2016-08-22T00:23:33.500Z,0
2016-08-22T00:23:57.648Z,0
2016-08-22T00:24:21.769Z,0
2016-08-22T00:24:45.876Z,0
2016-08-22T00:25:09.982Z,0
2016-08-22T00:25:34.086Z,0
2016-08-22T00:25:58.240Z,0
2016-08-22T00:26:22.428Z,0
2016-08-22T00:26:46.567Z,0
2016-08-22T00:27:10.698Z,0
2016-08-22T00:27:34.823Z,0
2016-08-22T00:27:58.944Z,0
2016-08-22T00:28:23.053Z,0
2016-08-22T00:28:47.195Z,0
2016-08-22T00:29:11.314Z,0
2016-08-22T00:29:35.425Z,0
2016-08-22T00:29:59.550Z,0
2016-08-22T00:30:23.666Z,0
2016-08-22T00:30:47.767Z,0
2016-08-22T00:31:11.877Z,0
2016-08-22T00:31:36.021Z,0
2016-08-22T00:32:00.133Z,0
2016-08-22T00:32:24.268Z,0
2016-08-22T00:32:48.387Z,0
2016-08-22T00:33:12.547Z,0
2016-08-22T00:33:36.655Z,0
2016-08-22T00:34:00.788Z,0
2016-08-22T00:34:24.901Z,0
2016-08-22T00:34:49.022Z,0
2016-08-22T00:35:13.165Z,0
2016-08-22T00:35:37.303Z,0
2016-08-22T00:36:01.453Z,0
2016-08-22T00:36:25.566Z,0
2016-08-22T00:36:49.660Z,0
2016-08-22T00:37:13.786Z,0
2016-08-22T00:37:37.913Z,0
2016-08-22T00:38:02.025Z,0
2016-08-22T00:38:26.154Z,0
2016-08-22T00:38:50.334Z,0
2016-08-22T00:39:14.476Z,0
2016-08-22T00:39:38.619Z,0
2016-08-22T00:40:02.723Z,0
2016-08-22T00:40:26.897Z,0
2016-08-22T00:40:51.019Z,0
2016-08-22T00:41:15.137Z,0
2016-08-22T00:41:39.275Z,0
2016-08-22T00:42:03.414Z,0
2016-08-22T00:42:27.566Z,0
2016-08-22T00:42:51.696Z,0
2016-08-22T00:43:15.839Z,0
2016-08-22T00:43:39.969Z,0
2016-08-22T00:44:04.104Z,0
2016-08-22T00:44:28.231Z,0
2016-08-22T00:44:52.351Z,0
2016-08-22T00:45:16.500Z,0
2016-08-22T00:45:40.621Z,0
2016-08-22T00:46:04.755Z,0
2016-08-22T00:46:28.913Z,0
2016-08-22T00:46:53.079Z,0
2016-08-22T00:47:17.213Z,0
2016-08-22T00:47:41.352Z,0
2016-08-22T00:48:05.492Z,0
2016-08-22T00:48:29.623Z,0
2016-08-22T00:48:53.748Z,0
2016-08-22T00:49:17.878Z,0
2016-08-22T00:49:42.031Z,0
2016-08-22T00:50:06.165Z,0
2016-08-22T00:50:30.268Z,0
2016-08-22T00:50:54.400Z,0
2016-08-22T00:51:18.517Z,0
2016-08-22T00:51:42.638Z,0
2016-08-22T00:52:06.736Z,0
2016-08-22T00:52:30.869Z,0
2016-08-22T00:52:54.978Z,0
2016-08-22T00:53:19.155Z,0
2016-08-22T00:53:43.223Z,0
2016-08-22T00:54:07.329Z,0
2016-08-22T00:54:31.454Z,0
2016-08-22T00:54:55.572Z,0
2016-08-22T00:55:19.708Z,0
2016-08-22T00:55:43.830Z,0
2016-08-22T00:56:07.962Z,0
2016-08-22T00:56:32.138Z,0
2016-08-22T00:56:56.278Z,0
2016-08-22T00:57:20.401Z,0
2016-08-22T00:57:46.316Z,0
2016-08-22T00:58:10.423Z,0
2016-08-22T00:58:34.542Z,0
2016-08-22T00:58:58.687Z,0
2016-08-22T00:59:22.814Z,0
2016-08-22T00:59:46.929Z,0
2016-08-22T01:00:11.051Z,0
2016-08-22T01:00:35.246Z,0
2016-08-22T01:00:59.389Z,0
2016-08-22T01:01:23.487Z,0
2016-08-22T01:01:47.655Z,0
2016-08-22T01:02:11.787Z,0
2016-08-22T01:02:35.920Z,0
2016-08-22T01:03:00.032Z,0
2016-08-22T01:03:24.181Z,0
2016-08-22T01:03:48.307Z,0
2016-08-22T01:04:12.428Z,0
2016-08-22T01:04:36.567Z,0
2016-08-22T01:05:00.730Z,0
2016-08-22T01:05:24.862Z,0
2016-08-22T01:05:48.982Z,0
2016-08-22T01:06:13.071Z,0
2016-08-22T01:06:37.202Z,0
2016-08-22T01:07:01.330Z,0
2016-08-22T01:07:25.473Z,0
2016-08-22T01:07:49.616Z,0
2016-08-22T01:08:13.757Z,0
2016-08-22T01:08:37.922Z,0
2016-08-22T01:09:02.022Z,0
2016-08-22T01:09:26.170Z,0
2016-08-22T01:09:50.291Z,0
2016-08-22T01:10:14.441Z,0
2016-08-22T01:10:38.551Z,0
2016-08-22T01:11:02.706Z,0
2016-08-22T01:11:26.842Z,0
2016-08-22T01:11:50.947Z,0
2016-08-22T01:12:15.046Z,0
2016-08-22T01:12:39.178Z,0
2016-08-22T01:13:03.312Z,0
2016-08-22T01:13:27.424Z,0
2016-08-22T01:13:51.561Z,0
2016-08-22T01:14:15.699Z,0
2016-08-22T01:14:39.796Z,0
2016-08-22T01:15:03.910Z,0
2016-08-22T01:15:28.047Z,0
2016-08-22T01:15:52.204Z,0
2016-08-22T01:16:16.356Z,0
2016-08-22T01:16:40.492Z,0
2016-08-22T01:17:04.625Z,0
2016-08-22T01:17:28.768Z,0
2016-08-22T01:17:55.606Z,0
2016-08-22T01:18:19.720Z,0
2016-08-22T01:18:43.851Z,0
2016-08-22T01:19:07.983Z,0
2016-08-22T01:19:32.123Z,0
2016-08-22T01:19:56.258Z,0
2016-08-22T01:20:20.397Z,0
2016-08-22T01:20:44.525Z,0
2016-08-22T01:21:08.662Z,0
2016-08-22T01:21:32.810Z,0
2016-08-22T01:21:56.930Z,0
2016-08-22T01:22:21.078Z,0
2016-08-22T01:22:45.189Z,0
2016-08-22T01:23:09.359Z,0
2016-08-22T01:23:33.497Z,0
2016-08-22T01:23:57.635Z,0
2016-08-22T01:24:21.748Z,0
2016-08-22T01:24:45.876Z,0
2016-08-22T01:25:10.019Z,0
2016-08-22T01:25:34.154Z,0
2016-08-22T01:25:58.280Z,0
2016-08-22T01:26:22.383Z,0
2016-08-22T01:26:46.502Z,0
2016-08-22T01:27:10.669Z,0
2016-08-22T01:27:34.790Z,0
2016-08-22T01:27:58.932Z,0
2016-08-22T01:28:23.075Z,0
2016-08-22T01:28:47.187Z,0
2016-08-22T01:29:11.292Z,0
2016-08-22T01:29:35.415Z,0
2016-08-22T01:29:59.593Z,0
2016-08-22T01:30:23.733Z,0
2016-08-22T01:30:47.856Z,0
2016-08-22T01:31:12.008Z,0
2016-08-22T01:31:36.128Z,0
2016-08-22T01:32:00.256Z,0
2016-08-22T01:32:24.365Z,0
2016-08-22T01:32:48.524Z,0
2016-08-22T01:33:12.661Z,0
2016-08-22T01:33:36.817Z,0
2016-08-22T01:34:00.949Z,0
2016-08-22T01:34:25.115Z,0
2016-08-22T01:34:49.224Z,0
2016-08-22T01:35:13.332Z,0
2016-08-22T01:35:37.519Z,0
2016-08-22T01:36:01.657Z,0
2016-08-22T01:36:25.829Z,0
2016-08-22T01:36:49.936Z,0
2016-08-22T01:37:14.059Z,0
2016-08-22T01:37:38.204Z,0
2016-08-22T01:38:02.353Z,0
2016-08-22T01:38:26.472Z,0
2016-08-22T01:38:50.603Z,0
2016-08-22T01:39:14.723Z,0
2016-08-22T01:39:38.833Z,0
2016-08-22T01:40:02.956Z,0
2016-08-22T01:40:27.079Z,0
2016-08-22T01:40:51.226Z,0
2016-08-22T01:41:15.384Z,0
2016-08-22T01:41:39.522Z,0
2016-08-22T01:42:03.683Z,0
2016-08-22T01:42:27.804Z,0
2016-08-22T01:42:51.916Z,0
2016-08-22T01:43:16.035Z,0
2016-08-22T01:43:40.177Z,0
2016-08-22T01:44:04.326Z,0
2016-08-22T01:44:28.458Z,0
2016-08-22T01:44:52.584Z,0
2016-08-22T01:45:16.720Z,0
2016-08-22T01:45:40.854Z,0
2016-08-22T01:46:04.961Z,0
2016-08-22T01:46:29.075Z,0
2016-08-22T01:46:53.199Z,0
2016-08-22T01:47:17.305Z,0
2016-08-22T01:47:41.429Z,0
2016-08-22T01:48:05.538Z,0
2016-08-22T01:48:29.686Z,0
2016-08-22T01:48:53.777Z,0
2016-08-22T01:49:17.895Z,0
2016-08-22T01:49:42.030Z,0
2016-08-22T01:50:06.149Z,0
2016-08-22T01:50:30.286Z,0
2016-08-22T01:50:54.413Z,0
2016-08-22T01:51:18.604Z,0
2016-08-22T01:51:42.730Z,0
2016-08-22T01:52:06.849Z,0
2016-08-22T01:52:30.976Z,0
2016-08-22T01:52:55.105Z,0
2016-08-22T01:53:19.238Z,0
2016-08-22T01:53:43.352Z,0
2016-08-22T01:54:07.482Z,0
2016-08-22T01:54:31.577Z,0
2016-08-22T01:54:55.712Z,0
2016-08-22T01:55:19.837Z,0
2016-08-22T01:55:43.977Z,0
2016-08-22T01:56:08.107Z,0
2016-08-22T01:56:32.231Z,0
2016-08-22T01:56:56.338Z,0
2016-08-22T01:57:20.457Z,0
2016-08-22T01:57:44.595Z,0
2016-08-22T01:58:08.722Z,0
2016-08-22T01:58:32.825Z,0
2016-08-22T01:58:56.956Z,0
2016-08-22T01:59:21.087Z,0
2016-08-22T01:59:45.193Z,0
2016-08-22T02:00:09.324Z,0
2016-08-22T02:00:33.456Z,0
2016-08-22T02:00:57.616Z,0
2016-08-22T02:01:21.744Z,0
2016-08-22T02:01:45.877Z,0
2016-08-22T02:02:10.029Z,0
2016-08-22T02:02:34.150Z,0
2016-08-22T02:02:58.275Z,0
2016-08-22T02:03:22.400Z,0
2016-08-22T02:03:46.510Z,0
2016-08-22T02:04:10.676Z,0
2016-08-22T02:04:34.799Z,0
2016-08-22T02:04:58.913Z,0
2016-08-22T02:05:23.062Z,0
2016-08-22T02:05:47.194Z,0
2016-08-22T02:06:11.337Z,0
2016-08-22T02:06:35.442Z,0
2016-08-22T02:06:59.581Z,0
2016-08-22T02:07:23.696Z,0
2016-08-22T02:07:47.813Z,0
2016-08-22T02:08:11.937Z,0
2016-08-22T02:08:36.090Z,0
2016-08-22T02:09:00.228Z,0
2016-08-22T02:09:24.370Z,0
2016-08-22T02:09:48.510Z,0
2016-08-22T02:10:12.651Z,0
2016-08-22T02:10:36.762Z,0
2016-08-22T02:11:00.882Z,0
2016-08-22T02:11:25.014Z,0
2016-08-22T02:11:49.140Z,0
2016-08-22T02:12:13.272Z,0
2016-08-22T02:12:37.359Z,0
2016-08-22T02:13:01.480Z,0
2016-08-22T02:13:25.618Z,0
2016-08-22T02:13:49.776Z,0
2016-08-22T02:14:13.887Z,0
2016-08-22T02:14:38.023Z,0
2016-08-22T02:15:02.139Z,0
2016-08-22T02:15:26.288Z,0
2016-08-22T02:15:50.395Z,0
2016-08-22T02:16:14.516Z,0
2016-08-22T02:16:38.657Z,0
2016-08-22T02:17:02.748Z,0
2016-08-22T02:17:26.860Z,0
2016-08-22T02:17:51.005Z,0
2016-08-22T02:18:15.162Z,0
2016-08-22T02:18:39.261Z,0
2016-08-22T02:19:03.408Z,0
2016-08-22T02:19:27.547Z,0
2016-08-22T02:19:51.696Z,0
2016-08-22T02:20:15.806Z,0
2016-08-22T02:20:39.927Z,0
2016-08-22T02:21:04.039Z,0
2016-08-22T02:21:28.208Z,0
2016-08-22T02:21:52.349Z,0
2016-08-22T02:22:16.505Z,0
2016-08-22T02:22:40.640Z,0
2016-08-22T02:23:04.761Z,0
2016-08-22T02:23:28.939Z,0
2016-08-22T02:23:53.083Z,0
2016-08-22T02:24:17.215Z,0
2016-08-22T02:24:41.326Z,0
2016-08-22T02:25:05.462Z,0
2016-08-22T02:25:29.628Z,0
2016-08-22T02:25:53.752Z,0
2016-08-22T02:26:17.893Z,0
2016-08-22T02:26:42.009Z,0
2016-08-22T02:27:06.123Z,0
2016-08-22T02:27:30.230Z,0
2016-08-22T02:27:54.346Z,0
2016-08-22T02:28:18.464Z,0
2016-08-22T02:28:42.567Z,0
2016-08-22T02:29:06.734Z,0
2016-08-22T02:29:30.852Z,0
2016-08-22T02:29:54.963Z,0
2016-08-22T02:30:19.105Z,0
2016-08-22T02:30:43.210Z,0
2016-08-22T02:31:07.345Z,0
2016-08-22T02:31:31.487Z,0
2016-08-22T02:31:55.615Z,0
2016-08-22T02:32:19.734Z,0
2016-08-22T02:32:43.876Z,0
2016-08-22T02:33:07.987Z,0
2016-08-22T02:33:32.127Z,0
2016-08-22T02:33:56.233Z,0
2016-08-22T02:34:20.356Z,0
2016-08-22T02:34:44.484Z,0
2016-08-22T02:35:08.647Z,0
2016-08-22T02:35:32.770Z,0
2016-08-22T02:35:56.902Z,0
2016-08-22T02:36:21.016Z,0
2016-08-22T02:36:45.151Z,0
2016-08-22T02:37:09.351Z,0
2016-08-22T02:37:33.517Z,0
2016-08-22T02:37:57.640Z,0
2016-08-22T02:38:21.755Z,0
2016-08-22T02:38:45.896Z,0
2016-08-22T02:39:10.046Z,0
2016-08-22T02:39:34.200Z,0
2016-08-22T02:39:58.333Z,0
2016-08-22T02:40:22.467Z,0
2016-08-22T02:40:46.576Z,0
2016-08-22T02:41:10.768Z,0
2016-08-22T02:41:34.907Z,0
2016-08-22T02:41:59.038Z,0
2016-08-22T02:42:23.242Z,0
2016-08-22T02:42:47.378Z,0
2016-08-22T02:43:11.476Z,0
2016-08-22T02:43:35.602Z,0
2016-08-22T02:43:59.718Z,0
2016-08-22T02:44:23.863Z,0
2016-08-22T02:44:47.980Z,0
2016-08-22T02:45:12.114Z,0
2016-08-22T02:45:36.230Z,0
2016-08-22T02:46:00.407Z,0
2016-08-22T02:46:24.545Z,0
2016-08-22T02:46:48.702Z,0
2016-08-22T02:47:12.834Z,0
2016-08-22T02:47:36.958Z,0
2016-08-22T02:48:01.080Z,0
2016-08-22T02:48:25.216Z,0
2016-08-22T02:48:49.345Z,0
2016-08-22T02:49:13.453Z,0
2016-08-22T02:49:37.564Z,0
2016-08-22T02:50:01.671Z,0
2016-08-22T02:50:25.778Z,0
2016-08-22T02:50:49.887Z,0
2016-08-22T02:51:14.025Z,0
2016-08-22T02:51:38.196Z,0
2016-08-22T02:52:02.327Z,0
2016-08-22T02:52:26.460Z,0
2016-08-22T02:52:50.586Z,0
2016-08-22T02:53:14.742Z,0
2016-08-22T02:53:38.857Z,0
2016-08-22T02:54:02.970Z,0
2016-08-22T02:54:27.087Z,0
2016-08-22T02:54:51.202Z,0
2016-08-22T02:55:15.350Z,0
2016-08-22T02:55:39.474Z,0
2016-08-22T02:56:03.600Z,0
2016-08-22T02:56:27.729Z,0
2016-08-22T02:56:51.833Z,0
2016-08-22T02:57:15.933Z,0
2016-08-22T02:57:40.046Z,0
2016-08-22T02:58:04.155Z,0
2016-08-22T02:58:28.261Z,0
2016-08-22T02:58:52.432Z,0
2016-08-22T02:59:16.565Z,0
2016-08-22T02:59:40.715Z,0
2016-08-22T03:00:04.818Z,0
2016-08-22T03:00:28.982Z,0
2016-08-22T03:00:53.300Z,0
2016-08-22T03:01:17.450Z,0
2016-08-22T03:01:41.616Z,0
2016-08-22T03:02:05.735Z,0
2016-08-22T03:02:29.884Z,0
2016-08-22T03:02:53.978Z,0
2016-08-22T03:03:18.093Z,0
2016-08-22T03:03:42.213Z,0
2016-08-22T03:04:06.345Z,0
2016-08-22T03:04:30.463Z,0
2016-08-22T03:04:54.593Z,0
2016-08-22T03:05:18.747Z,0
2016-08-22T03:05:42.859Z,0
2016-08-22T03:06:06.994Z,0
2016-08-22T03:06:31.130Z,0
2016-08-22T03:06:55.303Z,0
2016-08-22T03:07:19.418Z,0
2016-08-22T03:07:43.522Z,0
2016-08-22T03:08:07.690Z,0
2016-08-22T03:08:31.812Z,0
2016-08-22T03:08:55.932Z,0
2016-08-22T03:09:20.063Z,0
2016-08-22T03:09:44.187Z,0
2016-08-22T03:10:08.307Z,0
2016-08-22T03:10:32.439Z,0
2016-08-22T03:10:56.576Z,0
2016-08-22T03:11:20.705Z,0
2016-08-22T03:11:44.866Z,0
2016-08-22T03:12:08.988Z,0
2016-08-22T03:12:33.098Z,0
2016-08-22T03:12:57.217Z,0
2016-08-22T03:13:21.317Z,0
2016-08-22T03:13:45.449Z,0
2016-08-22T03:14:09.551Z,0
2016-08-22T03:14:33.709Z,0
2016-08-22T03:14:57.865Z,0
2016-08-22T03:15:22.018Z,0
2016-08-22T03:15:46.123Z,0
2016-08-22T03:16:10.252Z,0
2016-08-22T03:16:34.365Z,0
2016-08-22T03:16:58.504Z,0
2016-08-22T03:17:22.723Z,0
2016-08-22T03:17:46.862Z,0
2016-08-22T03:18:11.028Z,0
2016-08-22T03:18:35.160Z,0
2016-08-22T03:18:59.290Z,0
2016-08-22T03:19:23.448Z,0
2016-08-22T03:19:47.595Z,0
2016-08-22T03:20:11.749Z,0
2016-08-22T03:20:35.892Z,0
2016-08-22T03:21:00.019Z,0
2016-08-22T03:21:24.169Z,0
2016-08-22T03:21:48.304Z,0
2016-08-22T03:22:12.425Z,0
2016-08-22T03:22:36.539Z,0
2016-08-22T03:23:00.708Z,0
2016-08-22T03:23:24.832Z,0
2016-08-22T03:23:48.955Z,0
2016-08-22T03:24:13.078Z,0
2016-08-22T03:24:37.214Z,0
2016-08-22T03:25:01.353Z,0
2016-08-22T03:25:25.456Z,0
2016-08-22T03:25:49.583Z,0
2016-08-22T03:26:13.717Z,0
2016-08-22T03:26:37.834Z,0
2016-08-22T03:27:01.956Z,0
2016-08-22T03:27:26.084Z,0
2016-08-22T03:27:50.223Z,0
2016-08-22T03:28:14.334Z,0
2016-08-22T03:28:38.469Z,4
2016-08-22T03:29:02.617Z,4
2016-08-22T03:29:26.732Z,4
2016-08-22T03:29:50.863Z,4
2016-08-22T03:30:14.985Z,4
2016-08-22T03:30:39.104Z,4
2016-08-22T03:31:03.252Z,4
2016-08-22T03:31:27.397Z,4
2016-08-22T03:31:51.505Z,4
2016-08-22T03:32:15.659Z,0
2016-08-22T03:32:39.791Z,4
2016-08-22T03:33:03.921Z,4
2016-08-22T03:33:28.054Z,4
2016-08-22T03:33:52.175Z,4
2016-08-22T03:34:16.312Z,4
2016-08-22T03:34:40.457Z,4
2016-08-22T03:35:04.611Z,8
2016-08-22T03:35:28.746Z,8
2016-08-22T03:35:52.867Z,4
2016-08-22T03:36:16.998Z,8
2016-08-22T03:36:41.133Z,8
2016-08-22T03:37:05.292Z,8
2016-08-22T03:37:29.432Z,8
2016-08-22T03:38:04.321Z,8
2016-08-22T03:38:28.500Z,12
2016-08-22T03:38:52.627Z,8
2016-08-22T03:39:16.757Z,8
2016-08-22T03:39:40.894Z,12
2016-08-22T03:40:05.022Z,12
2016-08-22T03:40:29.143Z,12
2016-08-22T03:40:53.293Z,12
2016-08-22T03:41:17.421Z,12
2016-08-22T03:41:41.522Z,12
2016-08-22T03:42:05.646Z,12
2016-08-22T03:42:29.814Z,12
2016-08-22T03:42:54.002Z,12
2016-08-22T03:43:18.114Z,16
2016-08-22T03:43:42.286Z,12
2016-08-22T03:44:06.432Z,16
2016-08-22T03:44:30.550Z,16
2016-08-22T03:44:54.680Z,16
2016-08-22T03:45:18.824Z,20
2016-08-22T03:45:42.957Z,20
2016-08-22T03:46:07.093Z,20
2016-08-22T03:46:31.215Z,24
2016-08-22T03:46:55.358Z,24
2016-08-22T03:47:19.496Z,24
2016-08-22T03:47:43.607Z,28
2016-08-22T03:48:07.735Z,24
2016-08-22T03:48:31.861Z,28
2016-08-22T03:48:55.987Z,32
2016-08-22T03:49:20.110Z,32
2016-08-22T03:49:44.271Z,36
2016-08-22T03:50:08.391Z,40
2016-08-22T03:50:32.504Z,40
2016-08-22T03:50:56.667Z,44
2016-08-22T03:51:20.821Z,48
2016-08-22T03:51:44.961Z,56
2016-08-22T03:52:09.098Z,56
2016-08-22T03:52:33.211Z,60
2016-08-22T03:52:57.335Z,64
2016-08-22T03:53:21.447Z,64
2016-08-22T03:53:45.609Z,72
2016-08-22T03:54:09.772Z,72
2016-08-22T03:54:33.881Z,72
2016-08-22T03:54:57.986Z,76
2016-08-22T03:55:22.108Z,80
2016-08-22T03:55:46.242Z,84
2016-08-22T03:56:10.354Z,88
2016-08-22T03:56:34.499Z,88
2016-08-22T03:56:58.651Z,96
2016-08-22T03:57:22.793Z,100
2016-08-22T03:57:46.921Z,108
2016-08-22T03:58:11.077Z,112
2016-08-22T03:58:35.250Z,116
2016-08-22T03:58:59.388Z,124
2016-08-22T03:59:23.537Z,132
2016-08-22T03:59:47.663Z,136
2016-08-22T04:00:11.776Z,144
2016-08-22T04:00:35.890Z,152
2016-08-22T04:01:00.011Z,160
2016-08-22T04:01:24.169Z,164
2016-08-22T04:01:48.297Z,172
2016-08-22T04:02:12.447Z,176
2016-08-22T04:02:36.604Z,184
2016-08-22T04:03:00.730Z,184
2016-08-22T04:03:24.847Z,196
2016-08-22T04:03:48.970Z,200
2016-08-22T04:04:13.107Z,208
2016-08-22T04:04:37.266Z,216
2016-08-22T04:05:01.384Z,224
2016-08-22T04:05:25.531Z,232
2016-08-22T04:05:49.658Z,240
2016-08-22T04:06:13.800Z,244
2016-08-22T04:06:37.940Z,248
2016-08-22T04:07:02.073Z,256
2016-08-22T04:07:26.196Z,264
2016-08-22T04:07:50.340Z,268
2016-08-22T04:08:14.461Z,272
2016-08-22T04:08:38.581Z,276
2016-08-22T04:09:02.700Z,272
2016-08-22T04:09:26.803Z,272
2016-08-22T04:09:50.937Z,272
2016-08-22T04:10:15.075Z,276
2016-08-22T04:10:39.223Z,268
2016-08-22T04:11:03.343Z,272
2016-08-22T04:11:27.481Z,268
2016-08-22T04:11:51.624Z,264
2016-08-22T04:12:15.760Z,256
2016-08-22T04:12:39.969Z,256
2016-08-22T04:13:04.136Z,256
2016-08-22T04:13:28.310Z,260
2016-08-22T04:13:52.404Z,256
2016-08-22T04:14:16.563Z,264
2016-08-22T04:14:40.694Z,268
2016-08-22T04:15:04.794Z,276
2016-08-22T04:15:28.899Z,284
2016-08-22T04:15:53.033Z,292
2016-08-22T04:16:17.152Z,296
2016-08-22T04:16:41.294Z,304
2016-08-22T04:17:05.441Z,316
2016-08-22T04:17:29.589Z,324
2016-08-22T04:17:54.626Z,332
2016-08-22T04:18:18.756Z,336
2016-08-22T04:18:42.879Z,336
2016-08-22T04:19:07.018Z,340
2016-08-22T04:19:31.211Z,340
2016-08-22T04:19:55.375Z,336
2016-08-22T04:20:19.537Z,340
2016-08-22T04:20:43.701Z,344
2016-08-22T04:21:07.828Z,344
2016-08-22T04:21:32.033Z,340
2016-08-22T04:21:56.194Z,332
2016-08-22T04:22:20.362Z,328
2016-08-22T04:22:44.476Z,324
2016-08-22T04:23:08.595Z,324
2016-08-22T04:23:32.728Z,336
2016-08-22T04:23:56.882Z,356
2016-08-22T04:24:21.048Z,376
2016-08-22T04:24:45.211Z,384
2016-08-22T04:25:09.357Z,396
2016-08-22T04:25:33.504Z,408
2016-08-22T04:25:57.641Z,428
2016-08-22T04:26:21.809Z,456
2016-08-22T04:26:45.929Z,480
2016-08-22T04:27:10.035Z,512
2016-08-22T04:27:34.183Z,540
2016-08-22T04:27:58.336Z,560
2016-08-22T04:28:23.036Z,572
2016-08-22T04:28:47.170Z,576
2016-08-22T04:29:11.321Z,576
2016-08-22T04:29:35.461Z,580
2016-08-22T04:29:59.602Z,576
2016-08-22T04:30:23.748Z,580
2016-08-22T04:30:47.898Z,584
2016-08-22T04:31:12.030Z,592
2016-08-22T04:31:36.136Z,588
2016-08-22T04:32:00.274Z,592
2016-08-22T04:32:24.428Z,604
2016-08-22T04:32:48.542Z,608
2016-08-22T04:33:12.681Z,604
2016-08-22T04:33:36.827Z,600
2016-08-22T04:34:00.978Z,596
2016-08-22T04:34:25.109Z,592
2016-08-22T04:34:49.255Z,584
2016-08-22T04:35:13.411Z,580
2016-08-22T04:35:37.526Z,596
2016-08-22T04:36:01.676Z,616
2016-08-22T04:36:25.827Z,644
2016-08-22T04:36:49.990Z,668
2016-08-22T04:37:14.103Z,688
2016-08-22T04:37:38.275Z,704
2016-08-22T04:38:02.404Z,712
2016-08-22T04:38:26.553Z,716
2016-08-22T04:38:50.667Z,728
2016-08-22T04:39:14.816Z,744
2016-08-22T04:39:38.930Z,764
2016-08-22T04:40:03.082Z,800
2016-08-22T04:40:27.206Z,848
2016-08-22T04:40:51.333Z,888
2016-08-22T04:41:15.442Z,920
2016-08-22T04:41:39.563Z,944
2016-08-22T04:42:03.712Z,976
2016-08-22T04:42:27.846Z,992
2016-08-22T04:42:51.997Z,1008
2016-08-22T04:43:16.131Z,1044
2016-08-22T04:43:40.253Z,1084
2016-08-22T04:44:04.390Z,1124
2016-08-22T04:44:28.575Z,1160
2016-08-22T04:44:52.703Z,1180
2016-08-22T04:45:16.843Z,1204
2016-08-22T04:45:41.011Z,1244
2016-08-22T04:46:05.140Z,1272
2016-08-22T04:46:29.252Z,1292
2016-08-22T04:46:53.395Z,1328
2016-08-22T04:47:17.544Z,1364
2016-08-22T04:47:41.715Z,1396
2016-08-22T04:48:05.856Z,1444
2016-08-22T04:48:30.014Z,1464
2016-08-22T04:48:54.148Z,1488
2016-08-22T04:49:18.293Z,1520
2016-08-22T04:49:42.427Z,1564
2016-08-22T04:50:06.566Z,1632
2016-08-22T04:50:30.722Z,1712
2016-08-22T04:50:54.849Z,1780
2016-08-22T04:51:19.004Z,1840
2016-08-22T04:51:43.126Z,1924
2016-08-22T04:52:07.288Z,2020
2016-08-22T04:52:31.423Z,2076
2016-08-22T04:52:55.550Z,2092
2016-08-22T04:53:19.719Z,2108
2016-08-22T04:53:43.837Z,2108
2016-08-22T04:54:07.975Z,2148
2016-08-22T04:54:32.148Z,2148
2016-08-22T04:54:56.273Z,2132
2016-08-22T04:55:20.407Z,2084
2016-08-22T04:55:44.536Z,2036
2016-08-22T04:56:08.678Z,2032
2016-08-22T04:56:32.811Z,2008
2016-08-22T04:56:56.947Z,1980
2016-08-22T04:57:21.075Z,1960
2016-08-22T04:57:45.299Z,1928
2016-08-22T04:58:09.440Z,1920
2016-08-22T04:58:33.558Z,1916
2016-08-22T04:58:57.693Z,1916
2016-08-22T04:59:21.817Z,1924
2016-08-22T04:59:45.945Z,1944
2016-08-22T05:00:10.095Z,2000
2016-08-22T05:00:34.230Z,2076
2016-08-22T05:00:58.355Z,2132
2016-08-22T05:01:22.497Z,2200
2016-08-22T05:01:46.658Z,2232
2016-08-22T05:02:10.803Z,2168
2016-08-22T05:02:34.907Z,2064
2016-08-22T05:02:59.074Z,1960
2016-08-22T05:03:23.209Z,1880
2016-08-22T05:03:47.348Z,1844
2016-08-22T05:04:11.479Z,1864
2016-08-22T05:04:35.614Z,1932
2016-08-22T05:04:59.741Z,2048
2016-08-22T05:05:23.849Z,2184
2016-08-22T05:05:48.036Z,2284
2016-08-22T05:06:12.195Z,2468
2016-08-22T05:06:36.341Z,2696
2016-08-22T05:07:00.455Z,2960
2016-08-22T05:07:24.595Z,3212
2016-08-22T05:07:48.762Z,3424
2016-08-22T05:08:12.905Z,3536
2016-08-22T05:08:37.044Z,3484
2016-08-22T05:09:01.170Z,3340
2016-08-22T05:09:25.315Z,3124
2016-08-22T05:09:49.449Z,2904
2016-08-22T05:10:13.599Z,2752
2016-08-22T05:10:37.748Z,2608
2016-08-22T05:11:01.892Z,2504
2016-08-22T05:11:26.019Z,2460
2016-08-22T05:11:50.158Z,2436
2016-08-22T05:12:14.312Z,2444
2016-08-22T05:12:38.575Z,2456
2016-08-22T05:13:02.710Z,2440
2016-08-22T05:13:26.824Z,2452
2016-08-22T05:13:50.924Z,2400
2016-08-22T05:14:15.099Z,2320
2016-08-22T05:14:39.234Z,2240
2016-08-22T05:15:03.383Z,2140
2016-08-22T05:15:27.518Z,2032
2016-08-22T05:15:51.613Z,1932
2016-08-22T05:16:15.760Z,1848
2016-08-22T05:16:39.888Z,1768
2016-08-22T05:17:04.020Z,1720
2016-08-22T05:17:28.132Z,1680
2016-08-22T05:17:52.257Z,1640
2016-08-22T05:18:16.412Z,1608
2016-08-22T05:18:40.540Z,1572
2016-08-22T05:19:04.667Z,1540
2016-08-22T05:19:28.810Z,1512
2016-08-22T05:19:52.947Z,1488
2016-08-22T05:20:17.064Z,1472
2016-08-22T05:20:41.227Z,1492
2016-08-22T05:21:05.367Z,1524
2016-08-22T05:21:29.497Z,1568
2016-08-22T05:21:53.607Z,1632
2016-08-22T05:22:17.754Z,1696
2016-08-22T05:22:41.894Z,1732
2016-08-22T05:23:06.020Z,1812
2016-08-22T05:23:30.165Z,1936
2016-08-22T05:23:54.297Z,2076
2016-08-22T05:24:18.422Z,2180
2016-08-22T05:24:42.561Z,2196
2016-08-22T05:25:06.699Z,2216
2016-08-22T05:25:30.886Z,2232
2016-08-22T05:25:55.012Z,2296
2016-08-22T05:26:19.140Z,2376
2016-08-22T05:26:43.286Z,2412
2016-08-22T05:27:07.424Z,2436
2016-08-22T05:27:31.570Z,2568
2016-08-22T05:27:55.696Z,2748
2016-08-22T05:28:19.825Z,2844
2016-08-22T05:28:43.965Z,2972
2016-08-22T05:29:08.095Z,3136
2016-08-22T05:29:32.245Z,3376
2016-08-22T05:29:56.366Z,3520
2016-08-22T05:30:20.518Z,3592
2016-08-22T05:30:44.637Z,3604
2016-08-22T05:31:08.777Z,3652
2016-08-22T05:31:32.922Z,3684
2016-08-22T05:31:57.031Z,3704
2016-08-22T05:32:21.158Z,3696
2016-08-22T05:32:45.290Z,3660
2016-08-22T05:33:09.417Z,3688
2016-08-22T05:33:33.549Z,3724
2016-08-22T05:33:57.685Z,3712
2016-08-22T05:34:21.820Z,3804
2016-08-22T05:34:45.959Z,3860
2016-08-22T05:35:10.082Z,3844
2016-08-22T05:35:34.204Z,3812
2016-08-22T05:35:58.349Z,3736
2016-08-22T05:36:22.475Z,3644
2016-08-22T05:36:46.630Z,3648
2016-08-22T05:37:10.751Z,3660
2016-08-22T05:37:34.905Z,3720
2016-08-22T05:37:59.031Z,3800
2016-08-22T05:38:23.170Z,3940
2016-08-22T05:38:47.288Z,4072
2016-08-22T05:39:11.443Z,4180
2016-08-22T05:39:35.559Z,4264
2016-08-22T05:39:59.684Z,4328
2016-08-22T05:40:23.812Z,4356
2016-08-22T05:40:47.963Z,4328
2016-08-22T05:41:12.089Z,4276
2016-08-22T05:41:36.247Z,4156
2016-08-22T05:42:00.378Z,4092
2016-08-22T05:42:24.513Z,4108
2016-08-22T05:42:48.648Z,4252
2016-08-22T05:43:12.785Z,4392
2016-08-22T05:43:36.923Z,4628
2016-08-22T05:44:01.040Z,4908
2016-08-22T05:44:25.166Z,5028
2016-08-22T05:44:49.333Z,5044
2016-08-22T05:45:13.461Z,4928
2016-08-22T05:45:37.570Z,4868
2016-08-22T05:46:01.704Z,4984